Time;durP1;ratioP1;P1;durP2;ratioP2;P2;SDS_P1;SDS_P2;PMS_P1;PMS_P2;Temp;Humidity;BMP_temperature;BMP_pressure;BME280_temperature;BME280_humidity;BME280_pressure;Samples;Min_cycle;Max_cycle;Signal;HPM_P1;HPM_P2
2024/03/22 00:01:48;;;;;;;23.23;14.10;;;10.80;99.90;;;;;;6246620;23;20360;-72
2024/03/22 00:04:14;;;;;;;20.20;11.90;;;10.80;99.90;;;;;;6245399;23;20341;-70
2024/03/22 00:06:42;;;;;;;20.80;12.10;;;10.80;99.90;;;;;;6246842;22;20851;-72
2024/03/22 00:09:07;;;;;;;21.73;12.37;;;10.70;99.90;;;;;;6246635;23;20801;-69
2024/03/22 00:11:33;;;;;;;22.80;12.80;;;10.70;99.90;;;;;;6246664;23;20368;-71
2024/03/22 00:13:58;;;;;;;21.10;12.30;;;10.70;99.90;;;;;;6244936;23;20433;-70
2024/03/22 00:16:24;;;;;;;23.83;13.17;;;10.70;99.90;;;;;;6243960;23;20176;-70
2024/03/22 00:18:50;;;;;;;22.60;12.00;;;10.60;99.90;;;;;;6243923;23;20462;-71
2024/03/22 00:21:16;;;;;;;23.07;14.10;;;10.60;99.90;;;;;;6246305;23;20188;-70
2024/03/22 00:23:43;;;;;;;22.60;13.80;;;10.60;99.90;;;;;;6245572;23;20149;-69
2024/03/22 00:26:09;;;;;;;22.33;13.23;;;10.60;99.90;;;;;;6245179;22;20411;-70
2024/03/22 00:28:34;;;;;;;21.13;12.20;;;10.50;99.90;;;;;;6246268;23;20387;-72
2024/03/22 00:31:00;;;;;;;19.37;11.83;;;10.50;99.90;;;;;;6246606;23;20141;-70
2024/03/22 00:33:25;;;;;;;17.10;11.30;;;10.50;99.90;;;;;;6246598;23;20156;-70
2024/03/22 00:35:51;;;;;;;15.43;9.90;;;10.50;99.90;;;;;;6247379;22;20165;-71
2024/03/22 00:38:17;;;;;;;18.20;10.80;;;10.50;99.90;;;;;;6219995;23;20145;-70
2024/03/22 00:40:42;;;;;;;19.93;11.87;;;10.50;99.90;;;;;;6247328;23;20135;-72
2024/03/22 00:43:08;;;;;;;15.80;11.20;;;10.60;99.90;;;;;;6246840;23;20130;-69
2024/03/22 00:45:33;;;;;;;21.20;12.03;;;10.60;99.90;;;;;;6246132;22;20137;-69
2024/03/22 00:47:59;;;;;;;19.63;13.07;;;10.60;99.90;;;;;;6246678;23;20133;-70
2024/03/22 00:50:25;;;;;;;17.80;11.20;;;10.60;99.90;;;;;;6246027;23;20125;-74
2024/03/22 00:52:52;;;;;;;15.93;11.40;;;10.60;99.90;;;;;;6246775;23;20208;-70
2024/03/22 00:55:18;;;;;;;20.00;12.67;;;10.60;99.90;;;;;;6247408;23;20201;-70
2024/03/22 00:57:44;;;;;;;18.23;12.70;;;10.60;99.90;;;;;;6248365;22;20680;-71
2024/03/22 01:00:10;;;;;;;20.30;13.60;;;10.60;99.90;;;;;;6248192;23;20376;-70
2024/03/22 01:02:35;;;;;;;21.80;14.50;;;10.60;99.90;;;;;;6248532;23;20142;-72
2024/03/22 01:05:01;;;;;;;23.63;15.70;;;10.60;99.90;;;;;;6247476;23;20375;-70
2024/03/22 01:07:26;;;;;;;28.23;16.30;;;10.60;99.90;;;;;;6248716;22;20200;-71
2024/03/22 01:09:52;;;;;;;21.83;13.80;;;10.60;99.90;;;;;;6248439;23;20403;-71
2024/03/22 01:12:18;;;;;;;23.33;15.37;;;10.60;99.90;;;;;;6248882;23;20184;-70
2024/03/22 01:14:43;;;;;;;24.17;16.03;;;10.60;99.90;;;;;;6247556;23;20498;-70
2024/03/22 01:17:09;;;;;;;24.87;16.50;;;10.50;99.90;;;;;;6248639;22;20235;-71
2024/03/22 01:19:34;;;;;;;25.80;16.40;;;10.50;99.90;;;;;;6247937;23;20138;-70
2024/03/22 01:22:00;;;;;;;27.27;15.43;;;10.50;99.90;;;;;;6251050;23;20129;-71
2024/03/22 01:24:25;;;;;;;25.20;17.40;;;10.50;99.90;;;;;;6247809;23;20168;-70
2024/03/22 01:26:51;;;;;;;24.27;16.13;;;10.40;99.90;;;;;;6247996;22;20189;-70
2024/03/22 01:29:16;;;;;;;21.10;15.03;;;10.40;99.90;;;;;;6248189;23;20522;-70
2024/03/22 01:31:42;;;;;;;22.20;14.70;;;10.40;99.90;;;;;;6248967;23;20139;-71
2024/03/22 01:34:08;;;;;;;20.33;13.50;;;10.40;99.90;;;;;;6246264;23;20144;-70
2024/03/22 01:36:33;;;;;;;23.20;15.57;;;10.40;99.90;;;;;;6247635;22;20179;-70
2024/03/22 01:38:59;;;;;;;21.80;14.83;;;10.40;99.90;;;;;;6247853;23;20142;-71
2024/03/22 01:41:25;;;;;;;21.33;14.17;;;10.40;99.90;;;;;;6221793;23;20412;-75
2024/03/22 01:43:51;;;;;;;19.60;14.30;;;10.40;99.90;;;;;;6248009;23;20130;-70
2024/03/22 01:46:16;;;;;;;22.03;14.33;;;10.40;99.90;;;;;;6247826;22;20165;-71
2024/03/22 01:48:42;;;;;;;17.33;12.17;;;10.40;99.90;;;;;;6248021;23;20141;-71
2024/03/22 01:51:09;;;;;;;22.90;15.90;;;10.40;99.90;;;;;;6248237;23;20187;-69
2024/03/22 01:53:37;;;;;;;19.90;12.23;;;10.40;99.90;;;;;;6247947;23;20133;-70
2024/03/22 01:56:03;;;;;;;25.53;14.30;;;10.40;99.90;;;;;;6247211;22;20419;-70
2024/03/22 01:58:28;;;;;;;23.07;15.03;;;10.40;99.90;;;;;;6222277;23;20421;-71
2024/03/22 02:00:54;;;;;;;21.53;14.33;;;10.40;99.90;;;;;;6248155;23;20200;-70
2024/03/22 02:03:20;;;;;;;18.63;12.80;;;10.40;99.90;;;;;;6248333;23;20561;-71
2024/03/22 02:05:45;;;;;;;23.90;15.23;;;10.30;99.90;;;;;;6245648;22;20361;-71
2024/03/22 02:08:11;;;;;;;21.70;14.20;;;10.30;99.90;;;;;;6247725;23;20510;-70
2024/03/22 02:10:37;;;;;;;20.50;13.53;;;10.30;99.90;;;;;;6247782;23;20205;-70
2024/03/22 02:13:02;;;;;;;20.13;13.30;;;10.30;99.90;;;;;;6247600;23;20351;-72
2024/03/22 02:15:28;;;;;;;20.80;13.17;;;10.30;99.90;;;;;;6247326;23;20400;-72
2024/03/22 02:17:54;;;;;;;19.40;14.00;;;10.30;99.90;;;;;;6246651;23;20165;-70
2024/03/22 02:20:19;;;;;;;20.20;12.90;;;10.30;99.90;;;;;;6247293;23;20141;-70
2024/03/22 02:22:45;;;;;;;19.63;12.60;;;10.30;99.90;;;;;;6248053;23;20140;-70
2024/03/22 02:25:10;;;;;;;19.77;13.23;;;10.30;99.90;;;;;;6249693;23;20140;-71
2024/03/22 02:27:37;;;;;;;20.83;13.80;;;10.30;99.90;;;;;;6246141;23;20185;-70
2024/03/22 02:30:03;;;;;;;19.83;13.67;;;10.30;99.90;;;;;;6248096;23;20141;-71
2024/03/22 02:32:29;;;;;;;19.97;13.70;;;10.30;99.90;;;;;;6247929;23;20330;-70
2024/03/22 02:34:54;;;;;;;16.80;12.63;;;10.30;99.90;;;;;;6246827;23;20371;-69
2024/03/22 02:37:20;;;;;;;18.03;13.10;;;10.30;99.90;;;;;;6247599;22;20184;-70
2024/03/22 02:39:45;;;;;;;20.80;15.70;;;10.30;99.90;;;;;;6248641;23;20133;-71
2024/03/22 02:42:11;;;;;;;17.03;11.73;;;10.30;99.90;;;;;;6247262;23;20133;-69
2024/03/22 02:44:42;;;;;;;22.73;13.80;;;10.30;99.90;;;;;;6246761;23;20134;-72
2024/03/22 02:47:11;;;;;;;19.40;13.87;;;10.40;99.90;;;;;;6246932;22;20169;-71
2024/03/22 02:49:38;;;;;;;21.13;13.27;;;10.40;99.90;;;;;;6246978;23;20375;-70
2024/03/22 02:52:04;;;;;;;16.17;11.67;;;10.40;99.90;;;;;;6247896;23;20361;-69
2024/03/22 02:54:29;;;;;;;16.70;11.70;;;10.40;99.90;;;;;;6247248;23;20360;-70
2024/03/22 02:56:55;;;;;;;17.00;11.87;;;10.40;99.90;;;;;;6246893;22;20184;-70
2024/03/22 02:59:20;;;;;;;16.33;12.07;;;10.40;99.90;;;;;;6246119;23;20208;-70
2024/03/22 03:01:46;;;;;;;14.70;10.87;;;10.40;99.90;;;;;;6247559;23;20252;-70
2024/03/22 03:04:12;;;;;;;15.40;11.27;;;10.50;99.90;;;;;;6247412;23;20136;-70
2024/03/22 03:06:37;;;;;;;17.43;11.80;;;10.50;99.90;;;;;;6247273;22;20248;-71
2024/03/22 03:09:07;;;;;;;21.47;12.60;;;10.50;99.90;;;;;;6247517;23;20152;-70
2024/03/22 03:11:32;;;;;;;16.27;11.53;;;10.50;99.90;;;;;;6251526;23;20405;-70
2024/03/22 03:13:58;;;;;;;13.13;10.03;;;10.50;99.90;;;;;;6250474;23;20360;-71
2024/03/22 03:16:24;;;;;;;14.37;10.30;;;10.50;99.90;;;;;;6246330;22;20580;-70
2024/03/22 03:18:49;;;;;;;13.17;9.53;;;10.50;99.90;;;;;;6246299;23;20137;-70
2024/03/22 03:21:15;;;;;;;14.90;10.10;;;10.60;99.90;;;;;;6247015;23;20125;-69
2024/03/22 03:23:40;;;;;;;10.47;8.57;;;10.60;99.90;;;;;;6247339;23;20426;-69
2024/03/22 03:26:06;;;;;;;14.87;9.57;;;10.60;99.90;;;;;;6247094;22;20181;-70
2024/03/22 03:28:31;;;;;;;12.93;9.40;;;10.50;99.90;;;;;;6246944;23;20138;-71
2024/03/22 03:30:57;;;;;;;14.83;10.07;;;10.50;99.90;;;;;;6247870;23;20145;-69
2024/03/22 03:33:23;;;;;;;12.93;8.93;;;10.50;99.90;;;;;;6247504;23;20129;-71
2024/03/22 03:35:48;;;;;;;12.63;9.27;;;10.40;99.90;;;;;;6246221;22;20526;-70
2024/03/22 03:38:15;;;;;;;9.87;7.87;;;10.40;99.90;;;;;;6247205;23;20145;-71
2024/03/22 03:40:40;;;;;;;12.67;8.60;;;10.40;99.90;;;;;;6247035;23;20284;-70
2024/03/22 03:43:06;;;;;;;11.20;8.10;;;10.50;99.90;;;;;;6245923;23;20351;-70
2024/03/22 03:45:32;;;;;;;11.03;8.13;;;10.50;99.90;;;;;;6246123;23;20133;-69
2024/03/22 03:47:57;;;;;;;12.20;8.30;;;10.50;99.90;;;;;;6246926;23;20129;-71
2024/03/22 03:50:23;;;;;;;13.07;9.37;;;10.50;99.90;;;;;;6246384;23;20308;-70
2024/03/22 03:52:49;;;;;;;13.10;10.00;;;10.50;99.90;;;;;;6246455;23;20141;-71
2024/03/22 03:55:15;;;;;;;14.57;9.80;;;10.50;99.90;;;;;;6246374;23;20330;-71
2024/03/22 03:57:40;;;;;;;14.77;9.40;;;10.50;99.90;;;;;;6246796;22;20176;-69
2024/03/22 04:00:07;;;;;;;11.50;9.33;;;10.50;99.90;;;;;;6244398;23;20426;-70
2024/03/22 04:02:32;;;;;;;15.60;9.23;;;10.50;99.90;;;;;;6246966;23;20149;-71
2024/03/22 04:04:58;;;;;;;13.60;9.40;;;10.50;99.90;;;;;;6245470;23;20398;-70
2024/03/22 04:07:24;;;;;;;13.80;9.43;;;10.50;99.90;;;;;;6246091;22;20200;-70
2024/03/22 04:09:49;;;;;;;11.43;8.60;;;10.50;99.90;;;;;;6246589;23;20208;-69
2024/03/22 04:12:15;;;;;;;10.50;7.80;;;10.60;99.90;;;;;;6245940;23;20138;-68
2024/03/22 04:14:40;;;;;;;9.77;6.30;;;10.60;99.90;;;;;;6245381;23;20144;-70
2024/03/22 04:17:06;;;;;;;9.90;6.87;;;10.60;99.90;;;;;;6246245;22;20173;-71
2024/03/22 04:19:32;;;;;;;13.80;8.00;;;10.50;99.90;;;;;;6245885;23;20545;-71
2024/03/22 04:21:57;;;;;;;12.07;7.33;;;10.50;99.90;;;;;;6246529;23;20140;-70
2024/03/22 04:24:23;;;;;;;10.90;8.27;;;10.40;99.90;;;;;;6246993;23;20199;-71
2024/03/22 04:26:48;;;;;;;11.70;8.80;;;10.40;99.90;;;;;;6205822;23;20197;-71
2024/03/22 04:29:14;;;;;;;11.80;8.20;;;10.30;99.90;;;;;;6187601;23;20131;-70
2024/03/22 04:31:40;;;;;;;12.90;9.13;;;10.20;99.90;;;;;;6187706;23;20154;-71
2024/03/22 04:34:07;;;;;;;9.40;7.30;;;10.10;99.90;;;;;;6186893;23;20456;-71
2024/03/22 04:36:33;;;;;;;10.97;8.37;;;10.00;99.90;;;;;;6187262;23;20189;-70
2024/03/22 04:38:58;;;;;;;13.83;8.57;;;10.00;99.90;;;;;;6187991;23;20822;-69
2024/03/22 04:41:24;;;;;;;12.10;9.30;;;10.00;99.90;;;;;;6187624;23;20354;-71
2024/03/22 04:43:50;;;;;;;10.90;8.43;;;9.90;99.90;;;;;;6188059;23;20131;-70
2024/03/22 04:46:15;;;;;;;12.93;8.20;;;9.90;99.90;;;;;;6187090;23;20166;-71
2024/03/22 04:48:41;;;;;;;13.53;8.40;;;9.90;99.90;;;;;;6211043;23;20151;-70
2024/03/22 04:51:06;;;;;;;10.27;8.10;;;10.00;99.90;;;;;;6188786;23;20488;-69
2024/03/22 04:53:32;;;;;;;12.73;9.37;;;10.00;99.90;;;;;;6188395;23;20329;-70
2024/03/22 04:55:58;;;;;;;11.20;7.50;;;10.00;99.90;;;;;;6187251;23;20557;-71
2024/03/22 04:58:23;;;;;;;11.63;7.80;;;10.10;99.90;;;;;;6188850;23;20131;-70
2024/03/22 05:00:55;;;;;;;14.13;8.53;;;10.10;99.90;;;;;;6189896;23;20161;-71
2024/03/22 05:03:21;;;;;;;14.00;9.10;;;10.10;99.90;;;;;;6192999;23;20558;-72
2024/03/22 05:05:46;;;;;;;12.77;9.07;;;10.20;99.90;;;;;;6195242;23;20365;-71
2024/03/22 05:08:13;;;;;;;13.60;9.13;;;10.20;99.90;;;;;;6199099;23;20151;-73
2024/03/22 05:10:39;;;;;;;13.80;8.73;;;10.30;99.90;;;;;;6224975;23;20190;-70
2024/03/22 05:13:04;;;;;;;12.00;8.00;;;10.30;99.90;;;;;;6198660;23;20365;-72
2024/03/22 05:15:30;;;;;;;10.43;7.60;;;10.30;99.90;;;;;;6195971;23;20277;-73
2024/03/22 05:17:57;;;;;;;9.03;6.73;;;10.30;99.90;;;;;;6194887;23;20162;-72
2024/03/22 05:20:23;;;;;;;15.00;8.17;;;10.30;99.90;;;;;;6194315;23;20205;-73
2024/03/22 05:22:49;;;;;;;13.30;8.37;;;10.30;99.90;;;;;;6194469;23;20355;-72
2024/03/22 05:25:15;;;;;;;13.97;9.80;;;10.40;99.90;;;;;;6193717;23;20166;-71
2024/03/22 05:27:42;;;;;;;14.30;8.90;;;10.40;99.90;;;;;;6244201;23;20235;-72
2024/03/22 05:30:09;;;;;;;10.83;8.00;;;10.40;99.90;;;;;;6257082;23;20757;-71
2024/03/22 05:32:35;;;;;;;15.50;9.17;;;10.40;99.90;;;;;;6258201;23;20372;-71
2024/03/22 05:35:00;;;;;;;15.70;11.40;;;10.50;99.90;;;;;;6260304;23;20360;-73
2024/03/22 05:37:26;;;;;;;12.53;9.20;;;10.50;99.90;;;;;;6258808;22;20185;-71
2024/03/22 05:39:52;;;;;;;14.60;9.83;;;10.50;99.90;;;;;;6257295;23;20188;-73
2024/03/22 05:42:18;;;;;;;11.90;7.77;;;10.60;99.90;;;;;;6254410;23;20376;-72
2024/03/22 05:44:44;;;;;;;9.30;7.17;;;10.60;99.90;;;;;;6258441;23;20153;-72
2024/03/22 05:47:10;;;;;;;11.07;8.30;;;10.60;99.90;;;;;;6258179;22;20208;-71
2024/03/22 05:49:36;;;;;;;9.70;6.90;;;10.60;99.90;;;;;;6256238;23;20415;-70
2024/03/22 05:52:02;;;;;;;12.33;8.33;;;10.70;99.90;;;;;;6257210;23;20615;-71
2024/03/22 05:54:27;;;;;;;13.83;8.27;;;10.70;99.90;;;;;;6257892;23;20135;-71
2024/03/22 05:56:53;;;;;;;11.30;7.10;;;10.70;99.90;;;;;;6257238;22;20201;-73
2024/03/22 05:59:18;;;;;;;11.70;8.50;;;10.80;99.90;;;;;;6231765;23;20144;-73
2024/03/22 06:01:44;;;;;;;14.93;8.80;;;10.80;99.90;;;;;;6259338;23;20141;-73
2024/03/22 06:04:10;;;;;;;11.47;8.70;;;10.90;99.90;;;;;;6205862;23;20223;-72
2024/03/22 06:06:35;;;;;;;15.57;9.40;;;10.90;99.90;;;;;;6259235;22;20161;-71
2024/03/22 06:09:08;;;;;;;11.63;8.80;;;11.00;99.90;;;;;;6258612;23;20141;-71
2024/03/22 06:11:34;;;;;;;12.03;9.20;;;11.10;99.90;;;;;;6262052;23;20538;-71
2024/03/22 06:13:59;;;;;;;13.90;9.47;;;11.20;99.90;;;;;;6257227;23;20367;-72
2024/03/22 06:16:25;;;;;;;12.83;9.23;;;11.20;99.90;;;;;;6258180;22;20184;-72
2024/03/22 06:18:51;;;;;;;15.20;9.50;;;11.30;99.90;;;;;;6259177;23;20141;-71
2024/03/22 06:21:21;;;;;;;11.90;9.20;;;11.30;99.90;;;;;;6262135;23;20377;-73
2024/03/22 06:23:51;;;;;;;9.80;7.00;;;11.40;99.90;;;;;;6261968;23;20217;-73
2024/03/22 06:26:17;;;;;;;9.57;6.73;;;11.40;99.90;;;;;;6238825;23;20477;-74
2024/03/22 06:28:43;;;;;;;10.83;7.90;;;11.50;99.90;;;;;;6267976;23;20820;-75
2024/03/22 06:31:08;;;;;;;12.83;9.57;;;11.50;99.90;;;;;;6213470;23;20143;-73
2024/03/22 06:33:34;;;;;;;10.27;8.33;;;11.60;99.90;;;;;;6237245;23;20385;-73
2024/03/22 06:36:00;;;;;;;10.23;8.57;;;11.60;99.90;;;;;;6211395;23;20187;-74
2024/03/22 06:38:26;;;;;;;12.20;8.27;;;11.60;99.90;;;;;;6237343;23;20152;-74
2024/03/22 06:40:52;;;;;;;13.23;9.33;;;11.70;99.90;;;;;;6234572;23;20428;-71
2024/03/22 06:43:17;;;;;;;10.63;8.73;;;11.70;99.90;;;;;;6236546;23;20370;-76
2024/03/22 06:45:43;;;;;;;11.17;8.70;;;11.70;99.90;;;;;;6235516;22;20145;-73
2024/03/22 06:48:09;;;;;;;10.57;7.30;;;11.70;99.90;;;;;;6235595;23;20162;-74
2024/03/22 06:50:34;;;;;;;12.23;8.10;;;11.80;99.90;;;;;;6260626;23;20205;-72
2024/03/22 06:53:00;;;;;;;10.07;8.57;;;11.80;99.90;;;;;;6236080;23;20148;-74
2024/03/22 06:55:28;;;;;;;9.07;6.63;;;12.00;99.90;;;;;;6236950;23;20151;-74
2024/03/22 06:57:54;;;;;;;8.43;6.67;;;12.10;99.90;;;;;;6210812;23;20420;-74
2024/03/22 07:00:20;;;;;;;15.87;10.80;;;12.30;99.90;;;;;;6265178;23;20360;-75
2024/03/22 07:02:45;;;;;;;8.57;7.10;;;12.40;99.90;;;;;;6263380;23;20147;-75
2024/03/22 07:05:11;;;;;;;11.30;8.07;;;12.60;99.90;;;;;;6265708;23;20198;-73
2024/03/22 07:07:38;;;;;;;12.67;7.93;;;12.80;99.90;;;;;;6265015;22;20176;-73
2024/03/22 07:10:07;;;;;;;10.67;8.70;;;13.00;99.90;;;;;;6235300;23;20206;-74
2024/03/22 07:12:33;;;;;;;10.17;8.20;;;13.10;99.90;;;;;;6236177;23;20463;-73
2024/03/22 07:15:02;;;;;;;8.40;7.23;;;13.30;99.90;;;;;;6237124;23;20369;-75
2024/03/22 07:17:29;;;;;;;10.60;8.63;;;13.40;99.90;;;;;;6262989;22;20483;-74
2024/03/22 07:19:58;;;;;;;9.40;7.40;;;13.50;99.90;;;;;;6238984;23;20368;-74
2024/03/22 07:22:24;;;;;;;10.60;7.87;;;13.60;99.90;;;;;;6241528;23;20372;-75
2024/03/22 07:24:51;;;;;;;10.47;9.13;;;13.70;99.90;;;;;;6266700;23;20360;-75
2024/03/22 07:27:17;;;;;;;9.30;7.57;;;13.80;99.90;;;;;;6264580;22;20256;-75
2024/03/22 07:29:43;;;;;;;10.77;8.47;;;13.90;99.90;;;;;;6236594;23;20360;-73
2024/03/22 07:32:09;;;;;;;9.30;7.80;;;14.00;99.90;;;;;;6236645;23;20149;-74
2024/03/22 07:34:49;;;;;;;10.93;8.10;;;14.00;99.90;;;;;;6237849;22;20364;-75
2024/03/22 07:37:14;;;;;;;8.30;6.87;;;14.00;99.90;;;;;;6226830;22;20184;-74
2024/03/22 07:39:42;;;;;;;6.87;5.77;;;14.10;99.90;;;;;;6270087;23;20444;-76
2024/03/22 07:42:11;;;;;;;6.10;5.07;;;14.10;99.90;;;;;;6150190;23;20481;-75
2024/03/22 07:44:37;;;;;;;8.57;7.07;;;14.20;99.90;;;;;;6143030;23;20427;-74
2024/03/22 07:47:02;;;;;;;7.23;5.10;;;14.30;99.90;;;;;;6145787;23;20490;-75
2024/03/22 07:49:28;;;;;;;12.27;7.20;;;14.50;99.90;;;;;;6170545;23;20152;-74
2024/03/22 07:51:53;;;;;;;7.83;7.03;;;14.60;99.90;;;;;;6170088;23;20142;-73
2024/03/22 07:54:20;;;;;;;8.63;6.07;;;14.80;99.90;;;;;;6170273;23;20514;-75
2024/03/22 07:56:46;;;;;;;6.57;5.87;;;14.90;99.90;;;;;;6145373;23;20191;-74
2024/03/22 07:59:12;;;;;;;8.93;6.43;;;15.10;99.90;;;;;;6144848;23;20370;-75
2024/03/22 08:01:37;;;;;;;14.67;9.77;;;15.30;99.90;;;;;;6145577;23;20155;-74
2024/03/22 08:04:04;;;;;;;7.23;5.97;;;15.40;99.90;;;;;;6118615;23;20151;-74
2024/03/22 08:06:30;;;;;;;10.77;8.37;;;15.60;99.90;;;;;;6143026;23;20251;-72
2024/03/22 08:08:55;;;;;;;11.83;8.90;;;15.60;99.90;;;;;;6145025;23;20375;-73
2024/03/22 08:11:22;;;;;;;11.70;9.30;;;15.60;99.90;;;;;;6172290;23;20132;-75
2024/03/22 08:13:48;;;;;;;12.60;10.60;;;15.60;99.90;;;;;;6140830;23;20169;-76
2024/03/22 08:16:15;;;;;;;13.23;11.13;;;15.60;99.90;;;;;;6142379;23;20453;-74
2024/03/22 08:18:41;;;;;;;14.03;11.37;;;15.60;99.90;;;;;;6116238;23;20148;-74
2024/03/22 08:21:07;;;;;;;13.87;9.93;;;15.60;99.90;;;;;;6118861;23;20373;-75
2024/03/22 08:23:34;;;;;;;10.63;9.10;;;15.60;99.90;;;;;;6145419;23;20152;-75
2024/03/22 08:26:05;;;;;;;10.60;8.97;;;15.70;99.90;;;;;;6141960;23;20182;-73
2024/03/22 08:28:31;;;;;;;15.90;12.03;;;15.80;99.90;;;;;;6141068;23;20371;-74
2024/03/22 08:30:57;;;;;;;18.40;11.90;;;15.90;99.90;;;;;;6146610;23;20429;-76
2024/03/22 08:33:22;;;;;;;15.93;13.10;;;16.10;99.90;;;;;;6197992;23;20382;-75
2024/03/22 08:35:48;;;;;;;18.30;11.93;;;16.30;99.90;;;;;;6200097;23;20150;-74
2024/03/22 08:38:16;;;;;;;14.50;11.53;;;16.50;99.90;;;;;;6179371;22;20187;-76
2024/03/22 08:40:50;;;;;;;15.93;11.70;;;16.60;99.90;;;;;;6189902;23;20149;-76
2024/03/22 08:43:16;;;;;;;11.90;10.60;;;16.60;99.90;;;;;;6138523;23;20349;-76
2024/03/22 08:48:13;;;;;;;16.90;12.70;;;16.70;99.90;;;;;;6180048;23;20382;-75
2024/03/22 08:50:42;;;;;;;23.90;15.10;;;16.70;98.80;;;;;;6207687;23;20325;-76
2024/03/22 08:53:08;;;;;;;15.70;12.20;;;16.50;97.70;;;;;;6181024;23;20157;-74
2024/03/22 08:55:34;;;;;;;18.30;11.67;;;16.40;98.00;;;;;;6205793;23;20353;-74
2024/03/22 08:57:59;;;;;;;19.10;14.57;;;16.40;98.10;;;;;;6174828;23;20136;-75
2024/03/22 09:00:25;;;;;;;18.43;14.30;;;16.40;96.80;;;;;;6148426;23;20136;-75
2024/03/22 09:02:50;;;;;;;18.57;12.00;;;16.30;97.00;;;;;;6177653;23;20392;-75
2024/03/22 09:05:16;;;;;;;13.63;11.30;;;16.40;97.20;;;;;;6174651;23;20161;-73
2024/03/22 09:07:42;;;;;;;15.50;11.60;;;16.50;97.10;;;;;;6151034;23;20166;-75
2024/03/22 09:10:08;;;;;;;13.63;10.77;;;16.60;95.00;;;;;;6150014;23;20137;-74
2024/03/22 09:12:37;;;;;;;12.70;10.10;;;16.70;95.30;;;;;;6153111;23;20143;-75
2024/03/22 09:15:04;;;;;;;12.13;9.73;;;16.90;94.00;;;;;;6082679;23;20170;-75
2024/03/22 09:17:30;;;;;;;14.60;9.00;;;17.00;92.30;;;;;;6124486;23;20437;-75
2024/03/22 09:19:56;;;;;;;11.20;8.60;;;17.10;91.20;;;;;;6143073;23;20394;-73
2024/03/22 09:22:22;;;;;;;10.77;9.07;;;17.30;90.00;;;;;;6119806;23;20183;-75
2024/03/22 09:24:47;;;;;;;10.03;6.87;;;17.30;87.80;;;;;;6145286;23;20278;-75
2024/03/22 09:27:13;;;;;;;10.57;6.57;;;17.40;88.80;;;;;;6145597;23;20410;-75
2024/03/22 09:29:39;;;;;;;9.13;6.70;;;17.50;87.20;;;;;;6144652;23;20183;-75
2024/03/22 09:32:05;;;;;;;8.73;6.87;;;17.40;84.70;;;;;;6146484;23;20166;-74
2024/03/22 09:34:31;;;;;;;7.87;6.40;;;17.50;83.30;;;;;;6121251;23;20150;-75
2024/03/22 09:36:58;;;;;;;9.43;5.70;;;17.60;80.70;;;;;;6071493;23;20908;-74
2024/03/22 09:39:24;;;;;;;8.40;6.13;;;17.60;80.00;;;;;;6147737;23;20124;-76
2024/03/22 09:41:51;;;;;;;12.53;8.73;;;17.70;80.40;;;;;;6146361;23;20869;-72
2024/03/22 09:44:21;;;;;;;7.17;6.27;;;17.80;78.10;;;;;;6145450;23;20159;-75
2024/03/22 09:46:50;;;;;;;9.87;7.60;;;17.70;78.90;;;;;;6145000;23;20423;-76
2024/03/22 09:49:19;;;;;;;8.47;6.23;;;17.70;78.00;;;;;;6147174;23;20887;-76
2024/03/22 09:51:51;;;;;;;7.00;5.50;;;17.80;79.30;;;;;;6146570;23;20443;-75
2024/03/22 09:54:19;;;;;;;8.90;6.50;;;18.00;78.70;;;;;;6144872;23;20411;-77
2024/03/22 09:56:50;;;;;;;6.13;5.27;;;18.00;77.60;;;;;;6198884;22;20444;-73
2024/03/22 09:59:16;;;;;;;8.87;5.70;;;18.20;77.60;;;;;;6239012;23;20364;-74
2024/03/22 10:01:43;;;;;;;9.73;6.60;;;18.30;75.10;;;;;;6242049;23;20401;-74
2024/03/22 10:04:11;;;;;;;10.33;6.53;;;18.40;73.90;;;;;;6236677;23;20376;-75
2024/03/22 10:06:37;;;;;;;7.30;5.80;;;18.50;73.80;;;;;;6188069;23;20415;-76
2024/03/22 10:09:05;;;;;;;7.93;6.10;;;18.50;73.70;;;;;;6186848;23;20373;-75
2024/03/22 10:11:31;;;;;;;8.93;5.57;;;18.50;73.20;;;;;;6185497;23;20142;-74
2024/03/22 10:13:56;;;;;;;8.43;6.50;;;18.60;73.10;;;;;;6235678;23;20361;-74
2024/03/22 10:16:22;;;;;;;8.00;6.13;;;18.50;72.60;;;;;;6235140;23;20178;-76
2024/03/22 10:18:48;;;;;;;9.53;6.13;;;18.60;71.60;;;;;;6233666;23;20185;-75
2024/03/22 10:21:20;;;;;;;7.90;5.30;;;18.40;69.80;;;;;;6234146;23;20217;-76
2024/03/22 10:23:48;;;;;;;11.83;5.83;;;18.20;70.40;;;;;;6210579;23;20134;-77
2024/03/22 10:26:14;;;;;;;15.03;5.90;;;18.20;70.80;;;;;;6186097;23;20410;-75
2024/03/22 10:28:47;;;;;;;13.00;6.20;;;18.10;71.60;;;;;;6211344;23;20401;-76
2024/03/22 10:31:14;;;;;;;16.77;7.50;;;18.30;70.80;;;;;;6210886;23;20388;-75
2024/03/22 10:33:57;;;;;;;8.60;5.10;;;18.30;71.10;;;;;;6188517;23;20376;-76
2024/03/22 10:36:23;;;;;;;6.93;5.10;;;18.40;71.60;;;;;;6211756;23;20432;-76
2024/03/22 10:38:54;;;;;;;9.73;5.87;;;18.50;71.20;;;;;;6212822;23;20429;-75
2024/03/22 10:41:33;;;;;;;9.10;6.30;;;18.50;70.60;;;;;;6189229;23;20377;-76
2024/03/22 10:44:01;;;;;;;8.80;5.90;;;18.60;70.40;;;;;;6211609;23;20689;-76
2024/03/22 10:46:30;;;;;;;7.80;5.90;;;18.70;70.00;;;;;;6212480;23;20165;-75
2024/03/22 10:48:57;;;;;;;6.07;5.17;;;18.60;69.00;;;;;;6214838;23;20379;-76
2024/03/22 10:51:27;;;;;;;14.00;9.53;;;18.70;69.40;;;;;;6213923;23;20381;-74
2024/03/22 10:53:56;;;;;;;10.20;6.90;;;18.60;67.60;;;;;;6213814;23;20365;-77
2024/03/22 10:56:23;;;;;;;11.60;7.67;;;18.60;67.50;;;;;;6187708;23;20436;-76
2024/03/22 10:58:52;;;;;;;12.87;7.20;;;18.40;68.10;;;;;;6163218;23;20393;-75
2024/03/22 11:01:33;;;;;;;8.90;6.77;;;18.20;68.10;;;;;;6210845;23;20373;-75
2024/03/22 11:04:29;;;;;;;10.53;7.70;;;18.20;68.60;;;;;;6163985;23;20373;-76
2024/03/22 11:06:57;;;;;;;13.50;8.23;;;18.00;68.90;;;;;;6186649;23;20476;-75
2024/03/22 11:09:31;;;;;;;13.43;8.50;;;17.80;70.00;;;;;;6215346;23;20392;-76
2024/03/22 11:12:00;;;;;;;11.67;7.90;;;17.70;70.20;;;;;;6237574;23;20336;-76
2024/03/22 11:14:33;;;;;;;11.17;8.53;;;17.50;70.90;;;;;;6189561;23;20415;-76
2024/03/22 11:16:58;;;;;;;8.00;6.40;;;17.40;71.20;;;;;;6211356;23;20432;-74
2024/03/22 11:19:24;;;;;;;11.13;9.30;;;17.50;71.70;;;;;;6191480;23;20138;-76
2024/03/22 11:21:51;;;;;;;13.00;9.53;;;17.60;71.50;;;;;;6188438;23;20176;-76
2024/03/22 11:24:17;;;;;;;14.83;9.00;;;17.40;72.20;;;;;;6213095;23;20153;-76
2024/03/22 11:26:44;;;;;;;12.50;8.83;;;17.50;72.60;;;;;;6212782;23;20388;-75
2024/03/22 11:29:16;;;;;;;16.17;10.50;;;17.50;72.60;;;;;;6211285;23;20142;-74
2024/03/22 11:31:42;;;;;;;8.63;7.73;;;17.50;71.50;;;;;;6209228;23;20377;-75
2024/03/22 11:34:08;;;;;;;12.13;8.90;;;17.60;71.80;;;;;;6210406;23;20354;-75
2024/03/22 11:36:35;;;;;;;14.70;9.53;;;17.60;71.60;;;;;;6203847;23;20465;-76
2024/03/22 11:39:03;;;;;;;11.93;8.37;;;17.80;71.40;;;;;;6169534;23;20444;-74
2024/03/22 11:41:31;;;;;;;17.87;9.00;;;17.90;70.80;;;;;;6211186;23;20372;-75
2024/03/22 11:44:02;;;;;;;13.40;8.20;;;18.10;70.70;;;;;;6234388;23;20793;-76
2024/03/22 11:49:02;;;;;;;17.97;12.17;;;18.50;67.30;;;;;;6206386;22;20454;-76
2024/03/22 11:51:31;;;;;;;10.07;8.10;;;18.50;66.80;;;;;;6182536;23;20392;-75
2024/03/22 11:53:57;;;;;;;14.77;10.93;;;18.40;67.50;;;;;;6156279;23;20384;-74
2024/03/22 11:56:25;;;;;;;13.73;9.87;;;18.50;66.80;;;;;;6182799;23;20441;-77
2024/03/22 11:59:06;;;;;;;12.90;8.50;;;18.30;66.80;;;;;;6201914;23;20448;-76
2024/03/22 12:01:33;;;;;;;11.00;9.20;;;18.10;66.90;;;;;;6184373;23;20464;-77
2024/03/22 12:03:59;;;;;;;8.90;7.60;;;18.10;67.20;;;;;;6182870;23;20385;-77
2024/03/22 12:06:27;;;;;;;9.70;7.67;;;18.20;67.10;;;;;;6166185;23;20459;-77
2024/03/22 12:08:53;;;;;;;12.30;8.53;;;18.20;67.00;;;;;;6219098;23;20196;-76
2024/03/22 12:11:35;;;;;;;9.47;7.73;;;18.20;66.10;;;;;;6225044;23;20416;-76
2024/03/22 12:14:01;;;;;;;12.17;9.67;;;18.30;66.10;;;;;;6243989;23;20371;-76
2024/03/22 12:16:32;;;;;;;14.30;10.43;;;18.20;64.60;;;;;;6218781;23;20408;-76
2024/03/22 12:18:58;;;;;;;9.67;7.60;;;18.10;64.90;;;;;;6214165;23;20161;-75
2024/03/22 12:21:24;;;;;;;12.40;9.10;;;18.00;65.60;;;;;;6213556;23;20385;-75
2024/03/22 12:23:54;;;;;;;12.57;10.43;;;18.00;65.00;;;;;;6181596;23;20381;-76
2024/03/22 12:26:20;;;;;;;22.83;12.00;;;17.90;65.70;;;;;;6158065;23;20541;-77
2024/03/22 12:28:46;;;;;;;11.13;9.87;;;17.80;66.60;;;;;;6183463;23;20398;-76
2024/03/22 12:34:00;;;;;;;11.90;10.67;;;17.80;67.50;;;;;;6260467;22;20442;-78
2024/03/22 12:36:34;;;;;;;14.40;9.53;;;17.70;68.10;;;;;;6239852;23;20409;-77
2024/03/22 12:39:00;;;;;;;13.73;10.97;;;17.70;68.90;;;;;;6211984;23;20359;-75
2024/03/22 12:41:29;;;;;;;14.37;10.87;;;17.60;68.50;;;;;;6186315;23;20357;-76